sensor_id;sensor_type;location;lat;lon;timestamp;temperature;humidity
56729;DHT22;42612;52.232;7.560;2023-04-25T00:01:46;11.30;61.20
56729;DHT22;42612;52.232;7.560;2023-04-25T00:04:11;11.30;61.00
56729;DHT22;42612;52.232;7.560;2023-04-25T00:06:37;11.30;61.10
56729;DHT22;42612;52.232;7.560;2023-04-25T00:09:04;11.30;61.30
56729;DHT22;42612;52.232;7.560;2023-04-25T00:11:33;11.30;61.50
56729;DHT22;42612;52.232;7.560;2023-04-25T00:13:59;11.30;61.50
56729;DHT22;42612;52.232;7.560;2023-04-25T00:16:27;11.40;61.80
56729;DHT22;42612;52.232;7.560;2023-04-25T00:18:54;11.40;61.70
56729;DHT22;42612;52.232;7.560;2023-04-25T00:21:20;11.40;61.80
56729;DHT22;42612;52.232;7.560;2023-04-25T00:23:46;11.40;61.90
56729;DHT22;42612;52.232;7.560;2023-04-25T00:26:12;11.50;61.90
56729;DHT22;42612;52.232;7.560;2023-04-25T00:28:39;11.50;62.00
56729;DHT22;42612;52.232;7.560;2023-04-25T00:31:05;11.50;62.10
56729;DHT22;42612;52.232;7.560;2023-04-25T00:33:31;11.50;62.20
56729;DHT22;42612;52.232;7.560;2023-04-25T00:35:57;11.60;62.10
56729;DHT22;42612;52.232;7.560;2023-04-25T00:38:22;11.60;62.00
56729;DHT22;42612;52.232;7.560;2023-04-25T00:40:48;11.70;62.10
56729;DHT22;42612;52.232;7.560;2023-04-25T00:43:14;11.70;62.00
56729;DHT22;42612;52.232;7.560;2023-04-25T00:45:40;11.70;61.90
56729;DHT22;42612;52.232;7.560;2023-04-25T00:48:06;11.80;61.90
56729;DHT22;42612;52.232;7.560;2023-04-25T00:50:35;11.80;61.70
56729;DHT22;42612;52.232;7.560;2023-04-25T00:53:02;11.80;61.70
56729;DHT22;42612;52.232;7.560;2023-04-25T00:55:29;11.80;61.50
56729;DHT22;42612;52.232;7.560;2023-04-25T00:57:57;11.80;61.50
56729;DHT22;42612;52.232;7.560;2023-04-25T01:00:22;11.80;61.60
56729;DHT22;42612;52.232;7.560;2023-04-25T01:02:48;11.80;61.70
56729;DHT22;42612;52.232;7.560;2023-04-25T01:05:15;11.80;61.80
56729;DHT22;42612;52.232;7.560;2023-04-25T01:07:41;11.80;61.70
56729;DHT22;42612;52.232;7.560;2023-04-25T01:10:08;11.80;61.60
56729;DHT22;42612;52.232;7.560;2023-04-25T01:12:34;11.80;61.50
56729;DHT22;42612;52.232;7.560;2023-04-25T01:15:00;11.90;61.40
56729;DHT22;42612;52.232;7.560;2023-04-25T01:17:26;11.80;61.20
56729;DHT22;42612;52.232;7.560;2023-04-25T01:19:52;11.80;61.10
56729;DHT22;42612;52.232;7.560;2023-04-25T01:22:18;11.80;61.10
56729;DHT22;42612;52.232;7.560;2023-04-25T01:24:45;11.80;61.10
56729;DHT22;42612;52.232;7.560;2023-04-25T01:27:10;11.80;61.00
56729;DHT22;42612;52.232;7.560;2023-04-25T01:29:37;11.70;60.80
56729;DHT22;42612;52.232;7.560;2023-04-25T01:32:03;11.70;60.90
56729;DHT22;42612;52.232;7.560;2023-04-25T01:34:30;11.70;61.00
56729;DHT22;42612;52.232;7.560;2023-04-25T01:36:56;11.60;61.00
56729;DHT22;42612;52.232;7.560;2023-04-25T01:39:22;11.70;60.90
56729;DHT22;42612;52.232;7.560;2023-04-25T01:41:48;11.60;60.90
56729;DHT22;42612;52.232;7.560;2023-04-25T01:44:14;11.60;60.80
56729;DHT22;42612;52.232;7.560;2023-04-25T01:46:40;11.60;60.80
56729;DHT22;42612;52.232;7.560;2023-04-25T01:49:06;11.60;60.80
56729;DHT22;42612;52.232;7.560;2023-04-25T01:51:32;11.60;60.80
56729;DHT22;42612;52.232;7.560;2023-04-25T01:53:58;11.50;60.80
56729;DHT22;42612;52.232;7.560;2023-04-25T01:56:24;11.50;60.80
56729;DHT22;42612;52.232;7.560;2023-04-25T01:58:51;11.60;60.90
56729;DHT22;42612;52.232;7.560;2023-04-25T02:01:17;11.60;61.00
56729;DHT22;42612;52.232;7.560;2023-04-25T02:03:43;11.50;61.00
56729;DHT22;42612;52.232;7.560;2023-04-25T02:06:08;11.60;61.10
56729;DHT22;42612;52.232;7.560;2023-04-25T02:08:34;11.60;61.10
56729;DHT22;42612;52.232;7.560;2023-04-25T02:11:00;11.60;61.00
56729;DHT22;42612;52.232;7.560;2023-04-25T02:13:26;11.60;61.00
56729;DHT22;42612;52.232;7.560;2023-04-25T02:15:51;11.60;61.00
56729;DHT22;42612;52.232;7.560;2023-04-25T02:18:17;11.70;60.90
56729;DHT22;42612;52.232;7.560;2023-04-25T02:20:43;11.70;60.80
56729;DHT22;42612;52.232;7.560;2023-04-25T02:23:11;11.70;60.80
56729;DHT22;42612;52.232;7.560;2023-04-25T02:25:36;11.80;60.80
56729;DHT22;42612;52.232;7.560;2023-04-25T02:28:02;11.80;60.60
56729;DHT22;42612;52.232;7.560;2023-04-25T02:30:28;11.80;60.50
56729;DHT22;42612;52.232;7.560;2023-04-25T02:32:54;11.80;60.40
56729;DHT22;42612;52.232;7.560;2023-04-25T02:35:19;11.80;60.40
56729;DHT22;42612;52.232;7.560;2023-04-25T02:37:45;11.90;60.60
56729;DHT22;42612;52.232;7.560;2023-04-25T02:40:11;11.80;60.50
56729;DHT22;42612;52.232;7.560;2023-04-25T02:42:37;11.90;60.50
56729;DHT22;42612;52.232;7.560;2023-04-25T02:45:03;11.90;60.40
56729;DHT22;42612;52.232;7.560;2023-04-25T02:47:29;11.90;60.40
56729;DHT22;42612;52.232;7.560;2023-04-25T02:49:54;11.90;60.30
56729;DHT22;42612;52.232;7.560;2023-04-25T02:52:20;11.90;60.20
56729;DHT22;42612;52.232;7.560;2023-04-25T02:54:46;11.90;60.10
56729;DHT22;42612;52.232;7.560;2023-04-25T02:57:12;11.90;60.00
56729;DHT22;42612;52.232;7.560;2023-04-25T02:59:38;11.90;59.90
56729;DHT22;42612;52.232;7.560;2023-04-25T03:02:03;11.80;59.80
56729;DHT22;42612;52.232;7.560;2023-04-25T03:04:29;11.80;59.90
56729;DHT22;42612;52.232;7.560;2023-04-25T03:06:55;11.70;59.80
56729;DHT22;42612;52.232;7.560;2023-04-25T03:09:21;11.70;59.80
56729;DHT22;42612;52.232;7.560;2023-04-25T03:11:46;11.70;60.00
56729;DHT22;42612;52.232;7.560;2023-04-25T03:14:13;11.60;60.00
56729;DHT22;42612;52.232;7.560;2023-04-25T03:16:39;11.60;60.00
56729;DHT22;42612;52.232;7.560;2023-04-25T03:19:05;11.60;60.00
56729;DHT22;42612;52.232;7.560;2023-04-25T03:21:32;11.60;60.10
56729;DHT22;42612;52.232;7.560;2023-04-25T03:24:03;11.50;60.20
56729;DHT22;42612;52.232;7.560;2023-04-25T03:26:29;11.50;60.30
56729;DHT22;42612;52.232;7.560;2023-04-25T03:28:55;11.60;60.20
56729;DHT22;42612;52.232;7.560;2023-04-25T03:31:21;11.50;60.00
56729;DHT22;42612;52.232;7.560;2023-04-25T03:33:47;11.50;60.00
56729;DHT22;42612;52.232;7.560;2023-04-25T03:36:13;11.50;60.00
56729;DHT22;42612;52.232;7.560;2023-04-25T03:38:39;11.40;60.00
56729;DHT22;42612;52.232;7.560;2023-04-25T03:41:06;11.40;60.00
56729;DHT22;42612;52.232;7.560;2023-04-25T03:43:32;11.40;60.00
56729;DHT22;42612;52.232;7.560;2023-04-25T03:45:58;11.30;60.00
56729;DHT22;42612;52.232;7.560;2023-04-25T03:48:25;11.30;60.00
56729;DHT22;42612;52.232;7.560;2023-04-25T03:50:52;11.30;60.10
56729;DHT22;42612;52.232;7.560;2023-04-25T03:53:18;11.30;60.80
56729;DHT22;42612;52.232;7.560;2023-04-25T03:55:44;11.30;60.00
56729;DHT22;42612;52.232;7.560;2023-04-25T03:58:10;11.30;60.10
56729;DHT22;42612;52.232;7.560;2023-04-25T04:00:36;11.30;60.30
56729;DHT22;42612;52.232;7.560;2023-04-25T04:03:02;11.30;60.20
56729;DHT22;42612;52.232;7.560;2023-04-25T04:05:28;11.30;60.00
56729;DHT22;42612;52.232;7.560;2023-04-25T04:07:54;11.30;60.00
56729;DHT22;42612;52.232;7.560;2023-04-25T04:10:20;11.30;60.00
56729;DHT22;42612;52.232;7.560;2023-04-25T04:12:46;11.30;60.00
56729;DHT22;42612;52.232;7.560;2023-04-25T04:15:12;11.30;60.00
56729;DHT22;42612;52.232;7.560;2023-04-25T04:17:38;11.30;60.00
56729;DHT22;42612;52.232;7.560;2023-04-25T04:20:04;11.30;59.80
56729;DHT22;42612;52.232;7.560;2023-04-25T04:22:31;11.30;59.70
56729;DHT22;42612;52.232;7.560;2023-04-25T04:24:57;11.30;60.30
56729;DHT22;42612;52.232;7.560;2023-04-25T04:27:23;11.30;59.70
56729;DHT22;42612;52.232;7.560;2023-04-25T04:29:49;11.30;59.70
56729;DHT22;42612;52.232;7.560;2023-04-25T04:32:16;11.30;59.80
56729;DHT22;42612;52.232;7.560;2023-04-25T04:34:42;11.30;60.00
56729;DHT22;42612;52.232;7.560;2023-04-25T04:37:08;11.30;59.70
56729;DHT22;42612;52.232;7.560;2023-04-25T04:39:35;11.20;59.60
56729;DHT22;42612;52.232;7.560;2023-04-25T04:42:01;11.30;59.60
56729;DHT22;42612;52.232;7.560;2023-04-25T04:44:29;11.20;59.60
56729;DHT22;42612;52.232;7.560;2023-04-25T04:46:58;11.20;59.60
56729;DHT22;42612;52.232;7.560;2023-04-25T04:49:24;11.10;59.60
56729;DHT22;42612;52.232;7.560;2023-04-25T04:51:50;11.10;59.60
56729;DHT22;42612;52.232;7.560;2023-04-25T04:54:15;11.10;59.70
56729;DHT22;42612;52.232;7.560;2023-04-25T04:56:41;11.10;59.70
56729;DHT22;42612;52.232;7.560;2023-04-25T04:59:07;11.10;59.70
56729;DHT22;42612;52.232;7.560;2023-04-25T05:01:33;11.10;59.70
56729;DHT22;42612;52.232;7.560;2023-04-25T05:04:01;11.00;59.50
56729;DHT22;42612;52.232;7.560;2023-04-25T05:06:28;11.10;59.70
56729;DHT22;42612;52.232;7.560;2023-04-25T05:08:57;11.00;59.50
56729;DHT22;42612;52.232;7.560;2023-04-25T05:11:23;11.00;59.50
56729;DHT22;42612;52.232;7.560;2023-04-25T05:13:51;11.00;59.40
56729;DHT22;42612;52.232;7.560;2023-04-25T05:16:17;11.00;59.30
56729;DHT22;42612;52.232;7.560;2023-04-25T05:18:43;11.00;59.40
56729;DHT22;42612;52.232;7.560;2023-04-25T05:21:09;11.00;59.50
56729;DHT22;42612;52.232;7.560;2023-04-25T05:23:35;11.00;59.30
56729;DHT22;42612;52.232;7.560;2023-04-25T05:26:00;11.00;59.00
56729;DHT22;42612;52.232;7.560;2023-04-25T05:28:26;11.00;59.00
56729;DHT22;42612;52.232;7.560;2023-04-25T05:30:52;11.00;59.10
56729;DHT22;42612;52.232;7.560;2023-04-25T05:33:18;11.00;59.20
56729;DHT22;42612;52.232;7.560;2023-04-25T05:35:44;11.00;59.00
56729;DHT22;42612;52.232;7.560;2023-04-25T05:38:10;11.00;58.80
56729;DHT22;42612;52.232;7.560;2023-04-25T05:40:36;11.00;58.90
56729;DHT22;42612;52.232;7.560;2023-04-25T05:43:02;11.00;59.00
56729;DHT22;42612;52.232;7.560;2023-04-25T05:45:28;11.00;59.10
56729;DHT22;42612;52.232;7.560;2023-04-25T05:47:54;11.00;58.80
56729;DHT22;42612;52.232;7.560;2023-04-25T05:50:20;11.00;58.90
56729;DHT22;42612;52.232;7.560;2023-04-25T05:52:45;11.00;58.90
56729;DHT22;42612;52.232;7.560;2023-04-25T05:55:11;11.00;58.90
56729;DHT22;42612;52.232;7.560;2023-04-25T05:57:37;11.00;58.80
56729;DHT22;42612;52.232;7.560;2023-04-25T06:00:07;11.00;58.80
56729;DHT22;42612;52.232;7.560;2023-04-25T06:02:34;11.00;58.70
56729;DHT22;42612;52.232;7.560;2023-04-25T06:05:01;11.00;58.60
56729;DHT22;42612;52.232;7.560;2023-04-25T06:07:28;11.00;58.60
56729;DHT22;42612;52.232;7.560;2023-04-25T06:09:55;11.10;58.80
56729;DHT22;42612;52.232;7.560;2023-04-25T06:12:21;11.10;58.80
56729;DHT22;42612;52.232;7.560;2023-04-25T06:14:46;11.10;58.60
56729;DHT22;42612;52.232;7.560;2023-04-25T06:17:13;11.10;58.60
56729;DHT22;42612;52.232;7.560;2023-04-25T06:19:38;11.10;58.60
56729;DHT22;42612;52.232;7.560;2023-04-25T06:22:04;11.10;58.50
56729;DHT22;42612;52.232;7.560;2023-04-25T06:24:30;11.20;58.30
56729;DHT22;42612;52.232;7.560;2023-04-25T06:26:56;11.20;58.20
56729;DHT22;42612;52.232;7.560;2023-04-25T06:29:21;11.10;58.20
56729;DHT22;42612;52.232;7.560;2023-04-25T06:31:47;11.20;58.10
56729;DHT22;42612;52.232;7.560;2023-04-25T06:34:13;11.20;57.90
56729;DHT22;42612;52.232;7.560;2023-04-25T06:36:38;11.20;57.90
56729;DHT22;42612;52.232;7.560;2023-04-25T06:39:04;11.20;57.90
56729;DHT22;42612;52.232;7.560;2023-04-25T06:41:29;11.20;57.80
56729;DHT22;42612;52.232;7.560;2023-04-25T06:43:56;11.20;57.80
56729;DHT22;42612;52.232;7.560;2023-04-25T06:46:22;11.20;57.70
56729;DHT22;42612;52.232;7.560;2023-04-25T06:48:48;11.20;57.60
56729;DHT22;42612;52.232;7.560;2023-04-25T06:51:13;11.30;57.70
56729;DHT22;42612;52.232;7.560;2023-04-25T06:53:40;11.30;57.60
56729;DHT22;42612;52.232;7.560;2023-04-25T06:56:06;11.30;57.40
56729;DHT22;42612;52.232;7.560;2023-04-25T06:58:31;11.40;57.30
56729;DHT22;42612;52.232;7.560;2023-04-25T07:00:57;11.40;57.50
56729;DHT22;42612;52.232;7.560;2023-04-25T07:03:23;11.40;57.40
56729;DHT22;42612;52.232;7.560;2023-04-25T07:05:49;11.50;57.70
56729;DHT22;42612;52.232;7.560;2023-04-25T07:08:16;11.50;56.80
56729;DHT22;42612;52.232;7.560;2023-04-25T07:10:42;11.50;56.60
56729;DHT22;42612;52.232;7.560;2023-04-25T07:13:08;11.60;56.50
56729;DHT22;42612;52.232;7.560;2023-04-25T07:15:34;11.60;56.40
56729;DHT22;42612;52.232;7.560;2023-04-25T07:18:00;11.60;57.10
56729;DHT22;42612;52.232;7.560;2023-04-25T07:20:25;11.60;56.40
56729;DHT22;42612;52.232;7.560;2023-04-25T07:22:53;11.60;56.50
56729;DHT22;42612;52.232;7.560;2023-04-25T07:25:19;11.60;56.40
56729;DHT22;42612;52.232;7.560;2023-04-25T07:27:45;11.60;56.50
56729;DHT22;42612;52.232;7.560;2023-04-25T07:30:11;11.60;56.40
56729;DHT22;42612;52.232;7.560;2023-04-25T07:32:38;11.60;56.30
56729;DHT22;42612;52.232;7.560;2023-04-25T07:35:04;11.60;55.90
56729;DHT22;42612;52.232;7.560;2023-04-25T07:37:30;11.60;55.80
56729;DHT22;42612;52.232;7.560;2023-04-25T07:39:56;11.60;55.90
56729;DHT22;42612;52.232;7.560;2023-04-25T07:42:21;11.60;56.00
56729;DHT22;42612;52.232;7.560;2023-04-25T07:44:47;11.60;56.00
56729;DHT22;42612;52.232;7.560;2023-04-25T07:47:13;11.60;55.90
56729;DHT22;42612;52.232;7.560;2023-04-25T07:49:39;11.60;55.70
56729;DHT22;42612;52.232;7.560;2023-04-25T07:52:05;11.60;55.90
56729;DHT22;42612;52.232;7.560;2023-04-25T07:54:31;11.60;56.10
56729;DHT22;42612;52.232;7.560;2023-04-25T07:56:58;11.70;56.00
56729;DHT22;42612;52.232;7.560;2023-04-25T07:59:24;11.70;55.80
56729;DHT22;42612;52.232;7.560;2023-04-25T08:01:50;11.70;55.40
56729;DHT22;42612;52.232;7.560;2023-04-25T08:04:16;11.70;55.10
56729;DHT22;42612;52.232;7.560;2023-04-25T08:06:42;11.80;55.30
56729;DHT22;42612;52.232;7.560;2023-04-25T08:09:09;11.80;55.30
56729;DHT22;42612;52.232;7.560;2023-04-25T08:11:35;11.80;55.20
56729;DHT22;42612;52.232;7.560;2023-04-25T08:14:01;11.80;55.30
56729;DHT22;42612;52.232;7.560;2023-04-25T08:16:27;11.90;55.40
56729;DHT22;42612;52.232;7.560;2023-04-25T08:18:53;11.90;55.30
56729;DHT22;42612;52.232;7.560;2023-04-25T08:21:20;12.00;55.10
56729;DHT22;42612;52.232;7.560;2023-04-25T08:23:45;12.00;54.90
56729;DHT22;42612;52.232;7.560;2023-04-25T08:26:11;12.00;54.70
56729;DHT22;42612;52.232;7.560;2023-04-25T08:28:37;12.00;54.70
56729;DHT22;42612;52.232;7.560;2023-04-25T08:31:03;12.00;54.70
56729;DHT22;42612;52.232;7.560;2023-04-25T08:33:29;12.10;54.50
56729;DHT22;42612;52.232;7.560;2023-04-25T08:35:55;12.10;54.50
56729;DHT22;42612;52.232;7.560;2023-04-25T08:38:21;12.10;54.80
56729;DHT22;42612;52.232;7.560;2023-04-25T08:40:49;12.20;54.50
56729;DHT22;42612;52.232;7.560;2023-04-25T08:43:18;12.20;54.10
56729;DHT22;42612;52.232;7.560;2023-04-25T08:45:45;12.20;53.90
56729;DHT22;42612;52.232;7.560;2023-04-25T08:48:16;12.20;53.80
56729;DHT22;42612;52.232;7.560;2023-04-25T08:50:51;12.30;53.80
56729;DHT22;42612;52.232;7.560;2023-04-25T08:53:29;12.30;52.80
56729;DHT22;42612;52.232;7.560;2023-04-25T08:55:59;12.40;52.40
56729;DHT22;42612;52.232;7.560;2023-04-25T08:58:28;12.40;52.30
56729;DHT22;42612;52.232;7.560;2023-04-25T09:00:54;12.40;52.30
56729;DHT22;42612;52.232;7.560;2023-04-25T09:03:19;12.40;53.20
56729;DHT22;42612;52.232;7.560;2023-04-25T09:05:45;12.40;52.90
56729;DHT22;42612;52.232;7.560;2023-04-25T09:08:11;12.40;53.40
56729;DHT22;42612;52.232;7.560;2023-04-25T09:10:37;12.50;52.70
56729;DHT22;42612;52.232;7.560;2023-04-25T09:13:14;12.50;53.30
56729;DHT22;42612;52.232;7.560;2023-04-25T09:15:51;12.60;52.00
56729;DHT22;42612;52.232;7.560;2023-04-25T09:18:29;12.50;51.30
56729;DHT22;42612;52.232;7.560;2023-04-25T09:21:08;12.70;50.90
56729;DHT22;42612;52.232;7.560;2023-04-25T09:23:46;12.70;51.30
56729;DHT22;42612;52.232;7.560;2023-04-25T09:26:19;12.70;50.70
56729;DHT22;42612;52.232;7.560;2023-04-25T09:28:46;12.70;50.90
56729;DHT22;42612;52.232;7.560;2023-04-25T09:31:21;12.70;51.40
56729;DHT22;42612;52.232;7.560;2023-04-25T09:34:01;12.70;50.90
56729;DHT22;42612;52.232;7.560;2023-04-25T09:36:28;12.70;51.10
56729;DHT22;42612;52.232;7.560;2023-04-25T09:38:55;12.80;51.90
56729;DHT22;42612;52.232;7.560;2023-04-25T09:41:24;12.90;51.60
56729;DHT22;42612;52.232;7.560;2023-04-25T09:43:50;12.90;50.80
56729;DHT22;42612;52.232;7.560;2023-04-25T09:46:16;12.90;51.40
56729;DHT22;42612;52.232;7.560;2023-04-25T09:48:50;13.00;51.20
56729;DHT22;42612;52.232;7.560;2023-04-25T09:51:16;13.10;50.50
56729;DHT22;42612;52.232;7.560;2023-04-25T09:53:46;13.10;51.10
56729;DHT22;42612;52.232;7.560;2023-04-25T09:56:15;13.10;50.70
56729;DHT22;42612;52.232;7.560;2023-04-25T09:58:42;13.10;50.70
56729;DHT22;42612;52.232;7.560;2023-04-25T10:01:09;13.10;50.50
56729;DHT22;42612;52.232;7.560;2023-04-25T10:03:38;13.10;50.40
56729;DHT22;42612;52.232;7.560;2023-04-25T10:06:09;13.00;50.30
56729;DHT22;42612;52.232;7.560;2023-04-25T10:08:38;13.00;50.30
56729;DHT22;42612;52.232;7.560;2023-04-25T10:11:07;13.00;50.10
56729;DHT22;42612;52.232;7.560;2023-04-25T10:13:34;13.00;49.90
56729;DHT22;42612;52.232;7.560;2023-04-25T10:16:04;13.00;49.80
56729;DHT22;42612;52.232;7.560;2023-04-25T10:18:31;13.00;49.50
56729;DHT22;42612;52.232;7.560;2023-04-25T10:21:05;12.90;49.80
56729;DHT22;42612;52.232;7.560;2023-04-25T10:23:32;12.90;49.10
56729;DHT22;42612;52.232;7.560;2023-04-25T10:25:59;12.90;49.70
56729;DHT22;42612;52.232;7.560;2023-04-25T10:28:26;12.80;49.50
56729;DHT22;42612;52.232;7.560;2023-04-25T10:31:01;12.80;49.80
56729;DHT22;42612;52.232;7.560;2023-04-25T10:33:36;12.80;50.30
56729;DHT22;42612;52.232;7.560;2023-04-25T10:36:17;12.80;50.20
56729;DHT22;42612;52.232;7.560;2023-04-25T10:38:45;12.80;50.60
56729;DHT22;42612;52.232;7.560;2023-04-25T10:41:12;12.80;50.60
56729;DHT22;42612;52.232;7.560;2023-04-25T10:43:49;12.90;50.10
56729;DHT22;42612;52.232;7.560;2023-04-25T10:46:27;12.90;49.30
56729;DHT22;42612;52.232;7.560;2023-04-25T10:48:57;12.80;49.20
56729;DHT22;42612;52.232;7.560;2023-04-25T10:51:32;12.80;49.80
56729;DHT22;42612;52.232;7.560;2023-04-25T10:54:01;12.70;50.20
56729;DHT22;42612;52.232;7.560;2023-04-25T10:56:33;12.60;50.30
56729;DHT22;42612;52.232;7.560;2023-04-25T10:59:26;12.60;50.40
56729;DHT22;42612;52.232;7.560;2023-04-25T11:01:53;12.50;50.50
56729;DHT22;42612;52.232;7.560;2023-04-25T11:06:55;12.40;50.50
56729;DHT22;42612;52.232;7.560;2023-04-25T11:09:26;12.40;50.50
56729;DHT22;42612;52.232;7.560;2023-04-25T11:11:54;12.40;50.60
56729;DHT22;42612;52.232;7.560;2023-04-25T11:14:21;12.40;50.30
56729;DHT22;42612;52.232;7.560;2023-04-25T11:16:47;12.40;50.00
56729;DHT22;42612;52.232;7.560;2023-04-25T11:19:13;12.40;50.60
56729;DHT22;42612;52.232;7.560;2023-04-25T11:21:39;12.50;51.00
56729;DHT22;42612;52.232;7.560;2023-04-25T11:24:04;12.50;51.00
56729;DHT22;42612;52.232;7.560;2023-04-25T11:26:31;12.60;51.10
56729;DHT22;42612;52.232;7.560;2023-04-25T11:28:59;12.70;51.10
56729;DHT22;42612;52.232;7.560;2023-04-25T11:31:26;12.80;50.90
56729;DHT22;42612;52.232;7.560;2023-04-25T11:33:53;13.00;51.60
56729;DHT22;42612;52.232;7.560;2023-04-25T11:36:20;13.10;51.00
56729;DHT22;42612;52.232;7.560;2023-04-25T11:38:48;13.30;51.30
56729;DHT22;42612;52.232;7.560;2023-04-25T11:41:14;13.40;50.80
56729;DHT22;42612;52.232;7.560;2023-04-25T11:43:39;13.60;50.80
56729;DHT22;42612;52.232;7.560;2023-04-25T11:46:08;13.70;50.70
56729;DHT22;42612;52.232;7.560;2023-04-25T11:48:41;13.80;50.40
56729;DHT22;42612;52.232;7.560;2023-04-25T11:51:07;13.90;50.00
56729;DHT22;42612;52.232;7.560;2023-04-25T11:53:34;14.00;50.40
56729;DHT22;42612;52.232;7.560;2023-04-25T11:56:00;14.10;49.90
56729;DHT22;42612;52.232;7.560;2023-04-25T11:58:27;14.20;50.00
56729;DHT22;42612;52.232;7.560;2023-04-25T12:00:53;14.20;50.10
56729;DHT22;42612;52.232;7.560;2023-04-25T12:03:19;14.00;49.90
56729;DHT22;42612;52.232;7.560;2023-04-25T12:05:45;13.90;50.50
56729;DHT22;42612;52.232;7.560;2023-04-25T12:08:12;13.80;50.50
56729;DHT22;42612;52.232;7.560;2023-04-25T12:10:39;13.70;50.30
56729;DHT22;42612;52.232;7.560;2023-04-25T12:13:23;13.60;50.30
56729;DHT22;42612;52.232;7.560;2023-04-25T12:15:51;13.60;49.80
56729;DHT22;42612;52.232;7.560;2023-04-25T12:18:20;13.50;51.00
56729;DHT22;42612;52.232;7.560;2023-04-25T12:20:46;13.50;50.90
56729;DHT22;42612;52.232;7.560;2023-04-25T12:23:12;13.50;50.90
56729;DHT22;42612;52.232;7.560;2023-04-25T12:25:40;13.50;50.80
56729;DHT22;42612;52.232;7.560;2023-04-25T12:28:22;13.50;51.50
56729;DHT22;42612;52.232;7.560;2023-04-25T12:33:27;13.60;50.50
56729;DHT22;42612;52.232;7.560;2023-04-25T12:35:54;13.70;51.10
56729;DHT22;42612;52.232;7.560;2023-04-25T12:38:27;13.80;50.90
56729;DHT22;42612;52.232;7.560;2023-04-25T12:40:59;13.70;50.20
56729;DHT22;42612;52.232;7.560;2023-04-25T12:43:25;13.70;50.10
56729;DHT22;42612;52.232;7.560;2023-04-25T12:45:53;13.50;49.90
56729;DHT22;42612;52.232;7.560;2023-04-25T12:48:20;13.30;49.80
56729;DHT22;42612;52.232;7.560;2023-04-25T12:50:47;13.10;49.90
56729;DHT22;42612;52.232;7.560;2023-04-25T12:53:15;12.90;50.20
56729;DHT22;42612;52.232;7.560;2023-04-25T12:55:48;12.70;50.50
56729;DHT22;42612;52.232;7.560;2023-04-25T12:58:15;12.60;50.60
56729;DHT22;42612;52.232;7.560;2023-04-25T13:00:41;12.40;51.10
56729;DHT22;42612;52.232;7.560;2023-04-25T13:03:07;12.30;51.20
56729;DHT22;42612;52.232;7.560;2023-04-25T13:05:34;12.30;51.60
56729;DHT22;42612;52.232;7.560;2023-04-25T13:08:00;12.20;52.20
56729;DHT22;42612;52.232;7.560;2023-04-25T13:10:25;12.10;52.30
56729;DHT22;42612;52.232;7.560;2023-04-25T13:12:51;12.20;52.10
56729;DHT22;42612;52.232;7.560;2023-04-25T13:15:17;12.20;51.80
56729;DHT22;42612;52.232;7.560;2023-04-25T13:17:42;12.20;51.50
56729;DHT22;42612;52.232;7.560;2023-04-25T13:20:09;12.30;52.30
56729;DHT22;42612;52.232;7.560;2023-04-25T13:22:36;12.40;51.90
56729;DHT22;42612;52.232;7.560;2023-04-25T13:25:04;12.50;52.20
56729;DHT22;42612;52.232;7.560;2023-04-25T13:27:31;12.70;52.40
56729;DHT22;42612;52.232;7.560;2023-04-25T13:30:03;12.90;53.10
56729;DHT22;42612;52.232;7.560;2023-04-25T13:32:36;13.00;52.50
56729;DHT22;42612;52.232;7.560;2023-04-25T13:35:13;13.20;52.20
56729;DHT22;42612;52.232;7.560;2023-04-25T13:37:39;13.40;52.10
56729;DHT22;42612;52.232;7.560;2023-04-25T13:40:08;13.60;52.40
56729;DHT22;42612;52.232;7.560;2023-04-25T13:42:38;13.70;52.20
56729;DHT22;42612;52.232;7.560;2023-04-25T13:45:05;13.90;52.20
56729;DHT22;42612;52.232;7.560;2023-04-25T13:47:31;14.00;51.80
56729;DHT22;42612;52.232;7.560;2023-04-25T13:49:57;14.10;51.60
56729;DHT22;42612;52.232;7.560;2023-04-25T13:52:23;14.20;51.70
56729;DHT22;42612;52.232;7.560;2023-04-25T13:54:52;14.30;51.20
56729;DHT22;42612;52.232;7.560;2023-04-25T13:57:18;14.30;50.40
56729;DHT22;42612;52.232;7.560;2023-04-25T13:59:44;14.30;50.20
56729;DHT22;42612;52.232;7.560;2023-04-25T14:02:09;14.20;49.80
56729;DHT22;42612;52.232;7.560;2023-04-25T14:04:35;14.00;49.70
56729;DHT22;42612;52.232;7.560;2023-04-25T14:07:02;13.80;49.70
56729;DHT22;42612;52.232;7.560;2023-04-25T14:09:29;13.70;49.90
56729;DHT22;42612;52.232;7.560;2023-04-25T14:11:55;13.50;50.20
56729;DHT22;42612;52.232;7.560;2023-04-25T14:14:21;13.40;50.50
56729;DHT22;42612;52.232;7.560;2023-04-25T14:16:48;13.30;50.60
56729;DHT22;42612;52.232;7.560;2023-04-25T14:19:14;13.30;50.80
56729;DHT22;42612;52.232;7.560;2023-04-25T14:21:40;13.30;50.60
56729;DHT22;42612;52.232;7.560;2023-04-25T14:24:06;13.20;50.40
56729;DHT22;42612;52.232;7.560;2023-04-25T14:26:33;13.20;50.50
56729;DHT22;42612;52.232;7.560;2023-04-25T14:29:00;13.10;50.50
56729;DHT22;42612;52.232;7.560;2023-04-25T14:31:26;13.10;50.80
56729;DHT22;42612;52.232;7.560;2023-04-25T14:33:52;13.00;50.90
56729;DHT22;42612;52.232;7.560;2023-04-25T14:36:18;12.90;51.00
56729;DHT22;42612;52.232;7.560;2023-04-25T14:38:44;12.80;51.40
56729;DHT22;42612;52.232;7.560;2023-04-25T14:41:10;12.70;51.60
56729;DHT22;42612;52.232;7.560;2023-04-25T14:43:36;12.60;52.10
56729;DHT22;42612;52.232;7.560;2023-04-25T14:46:02;12.50;52.30
56729;DHT22;42612;52.232;7.560;2023-04-25T14:48:29;12.50;52.50
56729;DHT22;42612;52.232;7.560;2023-04-25T14:50:55;12.50;52.80
56729;DHT22;42612;52.232;7.560;2023-04-25T14:53:22;12.50;53.00
56729;DHT22;42612;52.232;7.560;2023-04-25T14:55:48;12.50;53.00
56729;DHT22;42612;52.232;7.560;2023-04-25T14:58:14;12.40;53.20
56729;DHT22;42612;52.232;7.560;2023-04-25T15:00:40;12.50;53.30
56729;DHT22;42612;52.232;7.560;2023-04-25T15:03:06;12.50;53.50
56729;DHT22;42612;52.232;7.560;2023-04-25T15:05:33;12.50;53.60
56729;DHT22;42612;52.232;7.560;2023-04-25T15:07:59;12.50;53.60
56729;DHT22;42612;52.232;7.560;2023-04-25T15:10:25;12.50;53.60
56729;DHT22;42612;52.232;7.560;2023-04-25T15:12:51;12.50;53.70
56729;DHT22;42612;52.232;7.560;2023-04-25T15:15:19;12.60;53.90
56729;DHT22;42612;52.232;7.560;2023-04-25T15:17:44;12.70;54.10
56729;DHT22;42612;52.232;7.560;2023-04-25T15:20:11;12.80;54.00
56729;DHT22;42612;52.232;7.560;2023-04-25T15:22:43;13.00;53.60
56729;DHT22;42612;52.232;7.560;2023-04-25T15:25:10;13.00;52.80
56729;DHT22;42612;52.232;7.560;2023-04-25T15:27:37;13.10;52.20
56729;DHT22;42612;52.232;7.560;2023-04-25T15:30:07;13.10;51.70
56729;DHT22;42612;52.232;7.560;2023-04-25T15:32:36;13.10;51.30
56729;DHT22;42612;52.232;7.560;2023-04-25T15:35:04;13.00;50.90